Aeroporto :
LOGIN :

Iscrizione | Disclaimer

   EN    FR    IT 

 










Sommario :    VFR   VFR Marginale   IFR   IFR Intensivo   IFR Molto Intensivo
Visibilità : 
Base nubi : 
>= 8 km
>= 3000ft
5 / 8 km
1000 / 3000 ft
1500m / 5 km
500 / 1000 ft
800 / 1500m
200 / 500 ft
< 800m
< 200 ft
Simboli :   Temporali  Nebbia  Neve Forte  Precipitazioni Forti  Vento > 20 kt
SIGMETs :   Varie  Temporali  Ghiacco  Turbolenza  Onda orograficha  Ceneri Vulcaniche






- Altitudine del aeroporto : 376 ft


LHKE - Kecskemét

ULTIMO METAR :
  • 181715Z 24005KT 210V280 CAVOK 31/13 Q1016 NOSIG RMK BLU

METARs OBSOLETI :
  • 181645Z 23004KT 200V290 CAVOK 31/13 Q1016 NOSIG RMK BLU
  • 181615Z 23005KT 170V300 CAVOK 32/13 Q1016 NOSIG RMK BLU
  • 181545Z 25005KT 200V290 CAVOK 32/12 Q1016 NOSIG RMK BLU
  • 181515Z 24007KT 190V280 CAVOK 32/13 Q1017 NOSIG RMK BLU
  • 181445Z 21008KT 190V260 CAVOK 32/13 Q1017 NOSIG RMK BLU
  • 181415Z 18006KT 140V220 CAVOK 32/14 Q1017 NOSIG RMK BLU
  • 181345Z VRB05KT CAVOK 32/16 Q1017 NOSIG RMK BLU
  • 181315Z VRB05KT CAVOK 31/15 Q1017 NOSIG RMK BLU

TAF TAF LHKE
Valido dal 18 a 18 ore il 19 a 03 ore UTC


181715Z 1818/1903 VRB03KT CAVOK
BECMG 1818/1819 14005KT
BECMG 1901/1903 18005KT



MetMap, La meteo Aeronautica in un colpo d'occhio ! - Copyright ORBIFLY Dicembre 2007 - Disclaimer

ORBIFLY MET'MAP TEAM :

Programmazione e sviluppo : Alexandra Zaïnal
Concezione : Baudouin d'Aumeries
Supporto tecnico e logistico : Manuel Goepfert
Aiuto : Marc-Olivier Méhu
Aiuto per la traduzione : Arnaldo La Scala




FONTI E CREDITI :

   NOAA